Walker, California
Current Conditions -  °F | °C
As of 3:52 AM on Sunday 25 Jan 2015 (Local Time) from KBAN Reporting Station
Clear Clear  
Wind Chill: 19°   Ceiling: Unl
Heat Index: 19°   Visibility: NA
Dew Point: 11°   Wind: 0mph
Humidity: 71%   Direction: NA
Pressure: 30.42"   Gusts: NA
Location:  38.4678°N, 119.486°W
Report Text: KBAN 251152Z AUTO 00000KT CLR M07/M12 A3042 RMK AO2 SLP297 T10721117 11028 21083 56006
Loading
Personal Weather Stations






























Interactive Weather Map New forecast layout! Learn more

10-Day Weather Forecast

Advertisements
Track Severe Weather on mobile